createdAt,value
2023-05-09T00:00:13.706Z,13.47
2023-05-09T00:01:47.175Z,13.46
2023-05-09T00:03:18.878Z,13.50
2023-05-09T00:04:51.582Z,13.44
2023-05-09T00:06:23.293Z,13.36
2023-05-09T00:07:54.921Z,13.27
2023-05-09T00:09:26.597Z,13.32
2023-05-09T00:10:58.259Z,13.39
2023-05-09T00:12:29.912Z,13.32
2023-05-09T00:14:02.480Z,13.23
2023-05-09T00:15:34.175Z,13.21
2023-05-09T00:17:05.780Z,12.99
2023-05-09T00:18:37.944Z,12.97
2023-05-09T00:20:12.316Z,12.97
2023-05-09T00:21:44.350Z,13.04
2023-05-09T00:23:16.748Z,13.02
2023-05-09T00:24:48.943Z,13.12
2023-05-09T00:26:21.750Z,13.13
2023-05-09T00:27:53.405Z,13.09
2023-05-09T00:29:24.988Z,13.11
2023-05-09T00:30:57.105Z,13.13
2023-05-09T00:32:29.253Z,13.19
2023-05-09T00:34:01.001Z,13.11
2023-05-09T00:35:32.979Z,13.16
2023-05-09T00:37:04.594Z,13.16
2023-05-09T00:38:36.344Z,13.09
2023-05-09T00:40:09.232Z,13.11
2023-05-09T00:41:41.056Z,13.12
2023-05-09T00:43:12.734Z,13.12
2023-05-09T00:44:44.320Z,13.12
2023-05-09T00:46:15.946Z,13.10
2023-05-09T00:47:47.897Z,13.10
2023-05-09T00:49:20.057Z,13.02
2023-05-09T00:50:53.070Z,13.03
2023-05-09T00:52:26.022Z,12.99
2023-05-09T00:53:58.513Z,13.01
2023-05-09T00:55:30.262Z,12.94
2023-05-09T00:57:01.814Z,12.95
2023-05-09T00:58:33.412Z,13.01
2023-05-09T01:00:06.204Z,13.00
2023-05-09T01:01:37.889Z,13.01
2023-05-09T01:03:10.103Z,12.99
2023-05-09T01:04:42.182Z,12.88
2023-05-09T01:06:16.921Z,12.91
2023-05-09T01:08:10.467Z,12.95
2023-05-09T01:10:01.714Z,12.84
2023-05-09T01:11:42.547Z,12.80
2023-05-09T01:13:24.211Z,12.66
2023-05-09T01:15:17.309Z,12.66
2023-05-09T01:17:01.881Z,12.68
2023-05-09T01:19:12.379Z,12.71
2023-05-09T01:20:49.876Z,12.70
2023-05-09T01:22:26.780Z,12.82
2023-05-09T01:24:22.686Z,12.85
2023-05-09T01:26:01.967Z,12.85
2023-05-09T01:27:48.536Z,12.79
2023-05-09T01:29:44.667Z,12.78
2023-05-09T01:31:17.364Z,12.79
2023-05-09T01:32:52.151Z,12.77
2023-05-09T01:34:28.599Z,12.77
2023-05-09T01:36:09.801Z,12.79
2023-05-09T01:37:44.650Z,12.79
2023-05-09T01:39:18.068Z,12.71
2023-05-09T01:40:54.392Z,12.66
2023-05-09T01:42:30.971Z,12.66
2023-05-09T01:44:05.201Z,12.66
2023-05-09T01:45:39.002Z,12.66
2023-05-09T01:47:11.744Z,12.70
2023-05-09T01:48:45.057Z,12.76
2023-05-09T01:50:18.678Z,12.73
2023-05-09T01:51:51.244Z,12.74
2023-05-09T01:53:24.695Z,12.76
2023-05-09T01:54:57.794Z,12.81
2023-05-09T01:56:31.778Z,12.82
2023-05-09T01:58:06.194Z,12.76
2023-05-09T01:59:41.991Z,12.79
2023-05-09T02:01:14.838Z,12.77
2023-05-09T02:02:46.777Z,12.73
2023-05-09T02:04:20.882Z,12.70
2023-05-09T02:05:54.612Z,12.73
2023-05-09T02:07:29.330Z,12.74
2023-05-09T02:09:02.088Z,12.77
2023-05-09T02:10:35.356Z,12.83
2023-05-09T02:12:07.147Z,12.85
2023-05-09T02:13:39.162Z,12.79
2023-05-09T02:15:11.185Z,12.79
2023-05-09T02:16:45.806Z,12.82
2023-05-09T02:18:17.415Z,12.83
2023-05-09T02:19:49.001Z,12.82
2023-05-09T02:21:20.632Z,12.78
2023-05-09T02:22:52.351Z,12.75
2023-05-09T02:24:24.634Z,12.81
2023-05-09T02:25:56.624Z,12.90
2023-05-09T02:27:28.500Z,12.97
2023-05-09T02:29:02.836Z,12.96
2023-05-09T02:30:41.994Z,13.01
2023-05-09T02:32:20.782Z,13.02
2023-05-09T02:33:53.445Z,13.05
2023-05-09T02:35:27.402Z,12.98
2023-05-09T02:36:59.494Z,12.97
2023-05-09T02:38:32.633Z,12.91
2023-05-09T02:40:07.656Z,12.95
2023-05-09T02:41:39.406Z,12.93
2023-05-09T02:43:11.181Z,12.90
2023-05-09T02:44:42.762Z,12.90
2023-05-09T02:46:14.410Z,13.00
2023-05-09T02:47:46.093Z,13.07
2023-05-09T02:49:31.447Z,13.14
2023-05-09T02:51:04.853Z,13.12
2023-05-09T02:52:36.504Z,13.12
2023-05-09T02:54:08.936Z,13.16
2023-05-09T02:55:40.527Z,13.08
2023-05-09T02:57:12.188Z,13.09
2023-05-09T02:58:44.297Z,12.98
2023-05-09T03:00:18.005Z,12.99
2023-05-09T03:01:49.681Z,13.04
2023-05-09T03:03:23.354Z,13.05
2023-05-09T03:04:56.567Z,13.02
2023-05-09T03:06:28.250Z,13.05
2023-05-09T03:07:59.866Z,13.01
2023-05-09T03:09:31.618Z,13.07
2023-05-09T03:11:03.252Z,13.04
2023-05-09T03:12:35.300Z,13.00
2023-05-09T03:14:08.456Z,12.93
2023-05-09T03:15:40.085Z,12.87
2023-05-09T03:17:12.946Z,12.84
2023-05-09T03:18:44.656Z,12.81
2023-05-09T03:20:16.390Z,12.93
2023-05-09T03:21:48.079Z,12.98
2023-05-09T03:23:20.011Z,12.98
2023-05-09T03:24:51.711Z,13.02
2023-05-09T03:26:23.473Z,13.01
2023-05-09T03:27:55.046Z,13.01
2023-05-09T03:29:27.647Z,12.97
2023-05-09T03:30:59.255Z,12.95
2023-05-09T03:32:32.420Z,12.97
2023-05-09T03:34:04.010Z,13.03
2023-05-09T03:35:35.652Z,13.02
2023-05-09T03:37:07.473Z,13.08
2023-05-09T03:38:43.410Z,13.05
2023-05-09T03:40:15.333Z,13.03
2023-05-09T03:41:59.130Z,13.03
2023-05-09T03:43:30.813Z,13.03
2023-05-09T03:45:02.384Z,13.05
2023-05-09T03:46:34.107Z,13.11
2023-05-09T03:48:08.560Z,13.07
2023-05-09T03:49:42.808Z,13.09
2023-05-09T03:51:16.431Z,12.98
2023-05-09T03:52:50.554Z,12.98
2023-05-09T03:54:22.356Z,12.89
2023-05-09T03:55:55.767Z,12.85
2023-05-09T03:57:27.980Z,12.85
2023-05-09T03:59:01.585Z,12.90
2023-05-09T04:00:33.636Z,12.84
2023-05-09T04:02:13.123Z,12.85
2023-05-09T04:03:45.053Z,12.84
2023-05-09T04:05:19.353Z,12.91
2023-05-09T04:06:51.750Z,12.86
2023-05-09T04:08:23.692Z,12.79
2023-05-09T04:09:58.587Z,12.74
2023-05-09T04:11:30.619Z,12.82
2023-05-09T04:13:03.413Z,12.77
2023-05-09T04:14:35.506Z,12.76
2023-05-09T04:16:07.303Z,12.76
2023-05-09T04:17:39.547Z,12.79
2023-05-09T04:19:11.237Z,12.76
2023-05-09T04:20:43.191Z,12.75
2023-05-09T04:22:15.236Z,12.80
2023-05-09T04:23:46.917Z,12.82
2023-05-09T04:25:20.207Z,12.85
2023-05-09T04:26:52.756Z,12.93
2023-05-09T04:28:27.312Z,12.96
2023-05-09T04:30:00.291Z,12.99
2023-05-09T04:31:32.039Z,13.00
2023-05-09T04:33:04.452Z,12.99
2023-05-09T04:34:36.056Z,12.95
2023-05-09T04:36:14.012Z,12.96
2023-05-09T04:37:45.691Z,12.89
2023-05-09T04:39:17.667Z,12.94
2023-05-09T04:40:58.610Z,12.88
2023-05-09T04:42:33.386Z,12.89
2023-05-09T04:44:05.446Z,12.86
2023-05-09T04:45:37.104Z,12.93
2023-05-09T04:47:08.750Z,12.98
2023-05-09T04:48:40.609Z,12.99
2023-05-09T04:50:12.400Z,13.01
2023-05-09T04:51:44.018Z,13.05
2023-05-09T04:53:15.632Z,13.11
2023-05-09T04:54:47.400Z,13.18
2023-05-09T04:56:22.638Z,13.10
2023-05-09T04:57:54.789Z,12.97
2023-05-09T04:59:26.413Z,12.99
2023-05-09T05:00:58.109Z,12.93
2023-05-09T05:02:30.921Z,12.96
2023-05-09T05:04:02.560Z,13.00
2023-05-09T05:05:37.605Z,12.96
2023-05-09T05:07:10.191Z,13.02
2023-05-09T05:08:41.872Z,13.05
2023-05-09T05:10:13.911Z,12.98
2023-05-09T05:11:58.739Z,12.89
2023-05-09T05:13:32.926Z,12.68
2023-05-09T05:15:06.824Z,12.59
2023-05-09T05:16:39.185Z,12.59
2023-05-09T05:18:11.208Z,12.53
2023-05-09T05:19:43.505Z,12.52
2023-05-09T05:21:16.407Z,12.70
2023-05-09T05:22:48.901Z,12.82
2023-05-09T05:24:20.770Z,12.91
2023-05-09T05:25:52.786Z,12.95
2023-05-09T05:27:24.586Z,12.91
2023-05-09T05:28:57.217Z,12.87
2023-05-09T05:30:32.124Z,12.79
2023-05-09T05:32:05.971Z,12.88
2023-05-09T05:33:37.727Z,13.04
2023-05-09T05:35:13.410Z,13.18
2023-05-09T05:36:45.664Z,13.22
2023-05-09T05:38:17.362Z,13.14
2023-05-09T05:39:53.246Z,13.19
2023-05-09T05:41:24.946Z,13.34
2023-05-09T05:42:57.093Z,13.33
2023-05-09T05:44:29.357Z,13.30
2023-05-09T05:46:01.235Z,13.29
2023-05-09T05:47:35.677Z,13.39
2023-05-09T05:49:08.042Z,13.43
2023-05-09T05:50:39.902Z,13.59
2023-05-09T05:52:11.548Z,13.62
2023-05-09T05:53:43.215Z,13.71
2023-05-09T05:55:15.066Z,13.64
2023-05-09T05:56:47.026Z,13.64
2023-05-09T05:58:18.670Z,13.79
2023-05-09T05:59:51.225Z,13.80
2023-05-09T06:01:22.865Z,13.84
2023-05-09T06:02:55.160Z,13.97
2023-05-09T06:04:32.539Z,14.21
2023-05-09T06:06:04.680Z,14.29
2023-05-09T06:07:36.800Z,14.44
2023-05-09T06:09:08.672Z,15.03
2023-05-09T06:10:40.788Z,16.73
2023-05-09T06:12:16.426Z,17.04
2023-05-09T06:13:47.978Z,19.56
2023-05-09T06:15:19.543Z,20.26
2023-05-09T06:16:54.345Z,19.09
2023-05-09T06:18:26.178Z,17.65
2023-05-09T06:19:58.822Z,16.34
2023-05-09T06:21:30.536Z,15.79
2023-05-09T06:23:02.142Z,15.78
2023-05-09T06:24:36.299Z,15.61
2023-05-09T06:26:08.500Z,15.91
2023-05-09T06:27:40.745Z,16.50
2023-05-09T06:29:14.255Z,16.93
2023-05-09T06:30:45.978Z,16.53
2023-05-09T06:32:18.772Z,16.24
2023-05-09T06:33:50.946Z,16.46
2023-05-09T06:35:23.044Z,16.20
2023-05-09T06:36:54.926Z,16.15
2023-05-09T06:38:26.942Z,16.23
2023-05-09T06:39:58.768Z,17.32
2023-05-09T06:41:30.988Z,17.53
2023-05-09T06:43:02.782Z,18.50
2023-05-09T06:44:34.873Z,20.18
2023-05-09T06:46:07.444Z,21.67
2023-05-09T06:47:39.349Z,22.66
2023-05-09T06:49:11.100Z,22.53
2023-05-09T06:50:42.769Z,21.35
2023-05-09T06:52:15.783Z,19.09
2023-05-09T06:53:48.017Z,17.88
2023-05-09T06:55:19.688Z,17.78
2023-05-09T06:56:51.314Z,19.03
2023-05-09T06:58:23.265Z,20.11
2023-05-09T06:59:54.827Z,19.34
2023-05-09T07:01:27.035Z,18.41
2023-05-09T07:02:58.821Z,18.69
2023-05-09T07:04:30.519Z,17.63
2023-05-09T07:06:02.034Z,17.16
2023-05-09T07:07:33.559Z,17.19
2023-05-09T07:09:05.071Z,17.16
2023-05-09T07:10:36.760Z,17.52
2023-05-09T07:12:08.541Z,17.90
2023-05-09T07:13:40.127Z,18.14
2023-05-09T07:15:11.977Z,17.94
2023-05-09T07:16:43.768Z,17.62
2023-05-09T07:18:15.402Z,17.02
2023-05-09T07:19:46.963Z,17.23
2023-05-09T07:21:18.516Z,17.43
2023-05-09T07:22:50.149Z,17.13
2023-05-09T07:24:21.720Z,17.29
2023-05-09T07:25:59.595Z,16.92
2023-05-09T07:27:31.171Z,16.88
2023-05-09T07:29:02.965Z,17.10
2023-05-09T07:30:34.570Z,17.12
2023-05-09T07:32:06.284Z,17.05
2023-05-09T07:33:38.164Z,17.13
2023-05-09T07:35:09.859Z,16.77
2023-05-09T07:36:41.413Z,16.76
2023-05-09T07:38:13.279Z,16.99
2023-05-09T07:39:44.945Z,16.83
2023-05-09T07:41:16.735Z,17.01
2023-05-09T07:42:50.011Z,16.77
2023-05-09T07:44:22.335Z,16.87
2023-05-09T07:45:54.075Z,17.11
2023-05-09T07:47:25.986Z,17.28
2023-05-09T07:48:57.607Z,17.53
2023-05-09T07:50:29.658Z,17.58
2023-05-09T07:52:02.065Z,17.38
2023-05-09T07:53:33.911Z,17.69
2023-05-09T07:55:06.868Z,17.84
2023-05-09T07:56:38.590Z,17.81
2023-05-09T07:58:10.351Z,17.89
2023-05-09T07:59:42.486Z,17.99
2023-05-09T08:01:14.149Z,17.79
2023-05-09T08:02:45.871Z,17.98
2023-05-09T08:04:17.585Z,18.06
2023-05-09T08:05:49.516Z,17.80
2023-05-09T08:07:21.224Z,17.62
2023-05-09T08:08:52.826Z,17.25
2023-05-09T08:10:24.983Z,17.34
2023-05-09T08:11:56.577Z,17.76
2023-05-09T08:13:28.282Z,17.78
2023-05-09T08:14:59.872Z,17.78
2023-05-09T08:16:31.538Z,17.88
2023-05-09T08:18:03.255Z,18.22
2023-05-09T08:19:34.880Z,18.14
2023-05-09T08:21:06.730Z,18.53
2023-05-09T08:22:39.235Z,18.70
2023-05-09T08:24:10.787Z,18.64
2023-05-09T08:25:43.093Z,18.79
2023-05-09T08:27:15.483Z,19.02
2023-05-09T08:28:47.109Z,18.92
2023-05-09T08:30:18.836Z,18.58
2023-05-09T08:31:51.277Z,18.64
2023-05-09T08:33:23.527Z,18.69
2023-05-09T08:34:55.196Z,18.63
2023-05-09T08:36:26.766Z,18.54
2023-05-09T08:37:58.346Z,18.46
2023-05-09T08:39:30.704Z,18.50
2023-05-09T08:41:02.922Z,18.09
2023-05-09T08:42:37.424Z,17.76
2023-05-09T08:44:09.268Z,17.64
2023-05-09T08:45:52.355Z,17.84
2023-05-09T08:47:24.835Z,18.10
2023-05-09T08:48:57.349Z,17.99
2023-05-09T08:50:29.201Z,18.16
2023-05-09T08:52:01.529Z,18.20
2023-05-09T08:53:34.081Z,17.94
2023-05-09T08:55:06.307Z,17.97
2023-05-09T08:56:38.157Z,17.64
2023-05-09T08:58:09.764Z,17.73
2023-05-09T08:59:42.468Z,17.81
2023-05-09T09:01:14.457Z,17.62
2023-05-09T09:02:46.595Z,17.67
2023-05-09T09:04:18.288Z,17.65
2023-05-09T09:05:52.772Z,17.65
2023-05-09T09:07:27.669Z,17.82
2023-05-09T09:09:01.039Z,17.91
2023-05-09T09:10:33.529Z,17.81
2023-05-09T09:12:09.859Z,18.00
2023-05-09T09:13:43.709Z,18.10
2023-05-09T09:15:20.133Z,17.97
2023-05-09T09:16:55.182Z,17.96
2023-05-09T09:18:30.536Z,17.98
2023-05-09T09:20:05.667Z,18.17
2023-05-09T09:21:38.611Z,18.41
2023-05-09T09:23:13.087Z,18.44
2023-05-09T09:24:45.288Z,18.29
2023-05-09T09:26:16.966Z,18.43
2023-05-09T09:27:48.567Z,18.40
2023-05-09T09:29:21.070Z,18.40
2023-05-09T09:30:52.732Z,18.29
2023-05-09T09:32:33.642Z,18.32
2023-05-09T09:34:05.241Z,18.38
2023-05-09T09:35:40.369Z,18.49
2023-05-09T09:37:23.212Z,18.31
2023-05-09T09:39:02.358Z,18.38
2023-05-09T09:40:33.979Z,18.52
2023-05-09T09:42:12.192Z,18.55
2023-05-09T09:43:46.769Z,18.53
2023-05-09T09:45:25.284Z,18.75
2023-05-09T09:46:57.057Z,18.89
2023-05-09T09:48:34.012Z,18.84
2023-05-09T09:50:13.152Z,18.80
2023-05-09T09:51:45.396Z,18.79
2023-05-09T09:53:20.301Z,18.93
2023-05-09T09:54:56.564Z,18.85
2023-05-09T09:56:46.162Z,18.86
2023-05-09T09:58:25.158Z,19.06
2023-05-09T10:00:00.836Z,19.18
2023-05-09T10:01:32.469Z,19.31
2023-05-09T10:03:04.313Z,19.23
2023-05-09T10:04:41.799Z,19.59
2023-05-09T10:06:15.217Z,19.92
2023-05-09T10:07:50.400Z,19.83
2023-05-09T10:09:23.771Z,19.62
2023-05-09T10:10:55.524Z,19.83
2023-05-09T10:12:27.396Z,19.74
2023-05-09T10:13:59.020Z,19.55
2023-05-09T10:15:41.392Z,19.61
2023-05-09T10:17:19.853Z,19.40
2023-05-09T10:18:52.703Z,19.77
2023-05-09T10:20:25.522Z,19.61
2023-05-09T10:22:05.584Z,19.83
2023-05-09T10:23:38.386Z,19.84
2023-05-09T10:25:20.609Z,19.89
2023-05-09T10:26:56.153Z,19.89
2023-05-09T10:28:31.797Z,20.00
2023-05-09T10:30:15.515Z,20.10
2023-05-09T10:31:48.746Z,20.52
2023-05-09T10:33:27.803Z,20.33
2023-05-09T10:35:05.156Z,20.22
2023-05-09T10:36:37.616Z,20.50
2023-05-09T10:38:12.441Z,20.70
2023-05-09T10:39:44.283Z,21.18
2023-05-09T10:41:21.865Z,21.01
2023-05-09T10:42:53.901Z,20.87
2023-05-09T10:44:27.071Z,21.13
2023-05-09T10:45:59.192Z,20.76
2023-05-09T10:47:33.223Z,20.41
2023-05-09T10:49:05.112Z,20.51
2023-05-09T10:50:40.248Z,20.65
2023-05-09T10:52:12.397Z,20.72
2023-05-09T10:53:44.198Z,20.19
2023-05-09T10:55:16.111Z,20.42
2023-05-09T10:56:47.793Z,20.80
2023-05-09T10:58:29.893Z,20.56
2023-05-09T11:00:01.562Z,20.55
2023-05-09T11:01:35.379Z,20.74
2023-05-09T11:03:10.545Z,20.79
2023-05-09T11:04:42.337Z,20.80
2023-05-09T11:06:40.835Z,20.87
2023-05-09T11:08:26.723Z,21.14
2023-05-09T11:10:09.192Z,20.67
2023-05-09T11:11:51.505Z,20.44
2023-05-09T11:13:25.694Z,20.32
2023-05-09T11:15:06.348Z,19.99
2023-05-09T11:16:57.763Z,19.98
2023-05-09T11:18:30.732Z,20.14
2023-05-09T11:20:08.781Z,20.24
2023-05-09T11:22:00.885Z,20.42
2023-05-09T11:23:33.021Z,20.19
2023-05-09T11:25:05.813Z,20.21
2023-05-09T11:26:37.458Z,20.01
2023-05-09T11:28:09.275Z,20.20
2023-05-09T11:29:46.515Z,20.17
2023-05-09T11:31:19.050Z,20.07
2023-05-09T11:32:51.798Z,20.15
2023-05-09T11:34:24.109Z,20.13
2023-05-09T11:36:29.556Z,20.12
2023-05-09T11:38:02.059Z,19.94
2023-05-09T11:39:33.639Z,19.84
2023-05-09T11:41:05.955Z,19.48
2023-05-09T11:42:43.647Z,19.33
2023-05-09T11:44:17.072Z,19.50
2023-05-09T11:45:49.023Z,19.37
2023-05-09T11:47:21.785Z,19.09
2023-05-09T11:48:53.744Z,19.16
2023-05-09T11:50:25.625Z,19.33
2023-05-09T11:51:59.740Z,19.10
2023-05-09T11:53:32.365Z,18.92
2023-05-09T11:55:08.960Z,19.00
2023-05-09T11:56:42.038Z,19.01
2023-05-09T11:58:13.890Z,18.98
2023-05-09T11:59:46.454Z,18.96
2023-05-09T12:01:19.337Z,18.95
2023-05-09T12:02:53.434Z,18.84
2023-05-09T12:04:25.421Z,18.89
2023-05-09T12:05:57.156Z,19.04
2023-05-09T12:07:29.009Z,18.96
2023-05-09T12:09:02.285Z,18.97
2023-05-09T12:10:40.946Z,19.14
2023-05-09T12:12:14.535Z,19.27
2023-05-09T12:13:49.121Z,19.51
2023-05-09T12:15:21.793Z,19.70
2023-05-09T12:16:53.750Z,19.94
2023-05-09T12:18:25.334Z,20.15
2023-05-09T12:19:59.899Z,20.17
2023-05-09T12:21:31.595Z,20.48
2023-05-09T12:23:03.485Z,20.31
2023-05-09T12:24:36.874Z,20.37
2023-05-09T12:26:08.598Z,20.36
2023-05-09T12:27:41.758Z,20.31
2023-05-09T12:29:13.716Z,20.75
2023-05-09T12:30:45.707Z,21.39
2023-05-09T12:32:18.601Z,21.58
2023-05-09T12:33:50.391Z,21.82
2023-05-09T12:35:23.543Z,21.86
2023-05-09T12:36:55.137Z,21.57
2023-05-09T12:38:27.078Z,21.14
2023-05-09T12:40:12.604Z,21.31
2023-05-09T12:41:57.385Z,20.97
2023-05-09T12:43:34.065Z,20.78
2023-05-09T12:45:08.743Z,20.91
2023-05-09T12:46:40.467Z,20.70
2023-05-09T12:48:13.641Z,20.65
2023-05-09T12:49:50.004Z,20.41
2023-05-09T12:51:22.493Z,20.33
2023-05-09T12:53:02.655Z,20.31
2023-05-09T12:54:35.398Z,20.24
2023-05-09T12:56:34.157Z,20.19
2023-05-09T12:58:05.804Z,20.10
2023-05-09T12:59:37.461Z,20.01
2023-05-09T13:01:09.531Z,19.87
2023-05-09T13:02:42.176Z,19.83
2023-05-09T13:04:14.028Z,19.87
2023-05-09T13:05:54.512Z,19.70
2023-05-09T13:07:26.359Z,19.53
2023-05-09T13:09:02.793Z,19.17
2023-05-09T13:10:34.719Z,18.87
2023-05-09T13:12:09.981Z,18.46
2023-05-09T13:13:42.495Z,18.40
2023-05-09T13:15:19.940Z,18.05
2023-05-09T13:16:51.743Z,18.00
2023-05-09T13:18:24.446Z,18.24
2023-05-09T13:19:56.561Z,18.27
2023-05-09T13:21:28.159Z,18.81
2023-05-09T13:22:59.926Z,19.41
2023-05-09T13:24:31.612Z,19.78
2023-05-09T13:26:03.619Z,19.99
2023-05-09T13:27:35.792Z,20.12
2023-05-09T13:29:07.878Z,20.26
2023-05-09T13:30:39.740Z,20.17
2023-05-09T13:32:11.436Z,19.54
2023-05-09T13:33:42.997Z,19.60
2023-05-09T13:35:15.346Z,19.78
2023-05-09T13:36:46.901Z,19.47
2023-05-09T13:38:18.545Z,19.32
2023-05-09T13:39:50.227Z,19.43
2023-05-09T13:41:23.934Z,19.80
2023-05-09T13:42:55.902Z,20.06
2023-05-09T13:44:28.926Z,20.04
2023-05-09T13:46:00.810Z,19.80
2023-05-09T13:47:32.718Z,19.88
2023-05-09T13:49:04.495Z,20.39
2023-05-09T13:50:36.261Z,20.81
2023-05-09T13:52:09.011Z,21.33
2023-05-09T13:53:40.860Z,21.62
2023-05-09T13:55:12.522Z,21.82
2023-05-09T13:56:44.289Z,22.43
2023-05-09T13:58:16.056Z,22.36
2023-05-09T13:59:47.698Z,21.60
2023-05-09T14:01:19.443Z,21.12
2023-05-09T14:02:51.436Z,20.56
2023-05-09T14:04:23.160Z,20.93
2023-05-09T14:05:54.760Z,21.30
2023-05-09T14:07:26.522Z,21.43
2023-05-09T14:08:58.200Z,21.42
2023-05-09T14:10:29.803Z,21.36
2023-05-09T14:12:01.596Z,21.28
2023-05-09T14:13:33.300Z,21.26
2023-05-09T14:15:07.102Z,21.38
2023-05-09T14:16:38.869Z,21.71
2023-05-09T14:18:11.441Z,21.79
2023-05-09T14:19:44.083Z,21.67
2023-05-09T14:21:15.684Z,21.56
2023-05-09T14:22:48.216Z,21.27
2023-05-09T14:24:19.781Z,21.28
2023-05-09T14:25:51.768Z,21.38
2023-05-09T14:27:24.115Z,21.40
2023-05-09T14:28:55.756Z,20.91
2023-05-09T14:30:27.981Z,20.76
2023-05-09T14:32:00.118Z,20.93
2023-05-09T14:33:32.829Z,21.16
2023-05-09T14:35:04.777Z,21.14
2023-05-09T14:36:37.438Z,20.87
2023-05-09T14:38:09.878Z,20.70
2023-05-09T14:39:42.567Z,20.64
2023-05-09T14:41:15.254Z,20.72
2023-05-09T14:42:47.605Z,20.88
2023-05-09T14:44:19.757Z,20.94
2023-05-09T14:45:51.736Z,20.87
2023-05-09T14:47:23.315Z,20.77
2023-05-09T14:48:57.429Z,20.58
2023-05-09T14:50:29.545Z,20.60
2023-05-09T14:52:01.241Z,20.65
2023-05-09T14:53:35.854Z,20.94
2023-05-09T14:55:08.239Z,20.85
2023-05-09T14:56:40.339Z,21.03
2023-05-09T14:58:13.904Z,20.74
2023-05-09T14:59:45.664Z,20.72
2023-05-09T15:01:17.325Z,20.75
2023-05-09T15:02:49.635Z,20.76
2023-05-09T15:04:21.460Z,20.68
2023-05-09T15:05:53.397Z,20.71
2023-05-09T15:07:25.003Z,20.87
2023-05-09T15:08:56.750Z,20.77
2023-05-09T15:10:28.492Z,20.70
2023-05-09T15:12:00.259Z,20.74
2023-05-09T15:13:32.412Z,20.85
2023-05-09T15:15:15.327Z,20.79
2023-05-09T15:16:47.477Z,20.71
2023-05-09T15:18:20.169Z,20.65
2023-05-09T15:19:52.178Z,20.64
2023-05-09T15:21:24.849Z,20.50
2023-05-09T15:22:56.687Z,20.34
2023-05-09T15:24:28.431Z,20.32
2023-05-09T15:26:00.379Z,20.31
2023-05-09T15:27:32.147Z,20.36
2023-05-09T15:29:03.891Z,20.37
2023-05-09T15:30:38.342Z,20.24
2023-05-09T15:32:10.251Z,20.18
2023-05-09T15:33:42.037Z,20.16
2023-05-09T15:35:14.114Z,20.15
2023-05-09T15:36:46.279Z,20.12
2023-05-09T15:38:19.349Z,20.19
2023-05-09T15:39:51.313Z,20.06
2023-05-09T15:41:23.935Z,20.11
2023-05-09T15:42:56.036Z,20.06
2023-05-09T15:44:27.920Z,20.01
2023-05-09T15:45:59.664Z,20.00
2023-05-09T15:47:31.447Z,19.99
2023-05-09T15:49:03.322Z,19.88
2023-05-09T15:50:35.090Z,19.91
2023-05-09T15:52:07.976Z,20.02
2023-05-09T15:53:39.965Z,19.88
2023-05-09T15:55:13.078Z,19.95
2023-05-09T15:56:44.933Z,20.04
2023-05-09T15:58:17.337Z,20.11
2023-05-09T15:59:49.277Z,20.09
2023-05-09T16:01:21.277Z,20.04
2023-05-09T16:02:53.180Z,19.99
2023-05-09T16:04:24.871Z,19.92
2023-05-09T16:05:57.658Z,19.93
2023-05-09T16:07:31.106Z,19.94
2023-05-09T16:09:04.716Z,20.05
2023-05-09T16:10:36.671Z,20.11
2023-05-09T16:12:09.350Z,20.14
2023-05-09T16:13:41.082Z,20.04
2023-05-09T16:15:12.880Z,19.98
2023-05-09T16:16:44.738Z,19.87
2023-05-09T16:18:16.563Z,19.88
2023-05-09T16:19:48.435Z,19.82
2023-05-09T16:21:21.805Z,19.75
2023-05-09T16:22:53.731Z,19.64
2023-05-09T16:24:25.695Z,19.63
2023-05-09T16:25:57.569Z,19.51
2023-05-09T16:27:29.513Z,19.51
2023-05-09T16:29:01.421Z,19.42
2023-05-09T16:30:33.169Z,19.36
2023-05-09T16:32:05.247Z,19.36
2023-05-09T16:33:37.177Z,19.43
2023-05-09T16:35:09.245Z,19.53
2023-05-09T16:36:41.377Z,19.45
2023-05-09T16:38:13.732Z,19.44
2023-05-09T16:39:46.189Z,19.44
2023-05-09T16:41:17.916Z,19.41
2023-05-09T16:42:49.685Z,19.36
2023-05-09T16:44:21.897Z,19.34
2023-05-09T16:45:53.652Z,19.32
2023-05-09T16:47:25.702Z,19.16
2023-05-09T16:48:58.181Z,19.10
2023-05-09T16:50:30.079Z,18.95
2023-05-09T16:52:01.710Z,18.96
2023-05-09T16:53:33.432Z,18.98
2023-05-09T16:55:06.018Z,19.05
2023-05-09T16:56:37.980Z,18.97
2023-05-09T16:58:09.981Z,18.89
2023-05-09T16:59:41.950Z,18.78
2023-05-09T17:01:13.728Z,18.79
2023-05-09T17:02:45.663Z,18.67
2023-05-09T17:04:17.418Z,18.64
2023-05-09T17:05:49.202Z,18.59
2023-05-09T17:07:21.115Z,18.50
2023-05-09T17:08:53.420Z,18.52
2023-05-09T17:10:26.493Z,18.48
2023-05-09T17:11:58.933Z,18.37
2023-05-09T17:13:31.265Z,18.14
2023-05-09T17:15:03.433Z,17.99
2023-05-09T17:16:37.344Z,17.89
2023-05-09T17:18:09.870Z,17.46
2023-05-09T17:19:41.752Z,17.15
2023-05-09T17:21:16.999Z,16.99
2023-05-09T17:22:48.695Z,16.96
2023-05-09T17:24:20.361Z,16.81
2023-05-09T17:25:52.310Z,16.82
2023-05-09T17:27:24.299Z,16.80
2023-05-09T17:28:56.068Z,16.61
2023-05-09T17:30:27.858Z,16.54
2023-05-09T17:32:02.473Z,16.54
2023-05-09T17:33:34.390Z,16.62
2023-05-09T17:35:06.812Z,16.54
2023-05-09T17:36:38.498Z,16.56
2023-05-09T17:38:10.100Z,16.40
2023-05-09T17:39:42.649Z,16.36
2023-05-09T17:41:14.430Z,16.26
2023-05-09T17:42:46.088Z,16.28
2023-05-09T17:44:18.963Z,16.22
2023-05-09T17:45:52.412Z,16.23
2023-05-09T17:47:24.151Z,16.12
2023-05-09T17:48:56.635Z,16.05
2023-05-09T17:50:28.605Z,16.11
2023-05-09T17:52:00.472Z,16.18
2023-05-09T17:53:32.432Z,16.06
2023-05-09T17:55:04.454Z,16.09
2023-05-09T17:56:36.531Z,16.10
2023-05-09T17:58:08.524Z,16.00
2023-05-09T17:59:41.473Z,16.00
2023-05-09T18:01:13.528Z,16.03
2023-05-09T18:02:45.588Z,15.92
2023-05-09T18:04:17.282Z,15.80
2023-05-09T18:05:49.007Z,15.84
2023-05-09T18:07:21.000Z,15.75
2023-05-09T18:08:52.765Z,15.80
2023-05-09T18:10:24.422Z,15.78
2023-05-09T18:11:57.921Z,15.88
2023-05-09T18:13:29.781Z,15.93
2023-05-09T18:15:02.211Z,15.81
2023-05-09T18:16:34.735Z,15.77
2023-05-09T18:18:12.217Z,15.71
2023-05-09T18:19:45.844Z,15.70
2023-05-09T18:21:17.648Z,15.67
2023-05-09T18:22:49.815Z,15.73
2023-05-09T18:24:22.659Z,15.72
2023-05-09T18:25:55.738Z,15.74
2023-05-09T18:27:27.603Z,15.69
2023-05-09T18:28:59.381Z,15.58
2023-05-09T18:30:31.310Z,15.50
2023-05-09T18:32:03.740Z,15.51
2023-05-09T18:33:39.171Z,15.51
2023-05-09T18:35:11.439Z,15.51
2023-05-09T18:36:43.371Z,15.48
2023-05-09T18:38:15.463Z,15.50
2023-05-09T18:39:48.089Z,15.47
2023-05-09T18:41:20.198Z,15.43
2023-05-09T18:42:52.079Z,15.40
2023-05-09T18:44:24.052Z,15.36
2023-05-09T18:45:57.135Z,15.36
2023-05-09T18:47:29.451Z,15.43
2023-05-09T18:49:04.116Z,15.43
2023-05-09T18:50:36.632Z,15.32
2023-05-09T18:52:09.566Z,15.37
2023-05-09T18:53:43.095Z,15.33
2023-05-09T18:55:16.018Z,15.19
2023-05-09T18:56:48.275Z,15.16
2023-05-09T18:58:21.330Z,15.14
2023-05-09T18:59:54.225Z,15.10
2023-05-09T19:01:27.302Z,15.08
2023-05-09T19:02:59.965Z,15.03
2023-05-09T19:04:32.496Z,15.11
2023-05-09T19:06:05.311Z,15.09
2023-05-09T19:07:39.075Z,15.07
2023-05-09T19:09:12.922Z,15.13
2023-05-09T19:10:46.035Z,15.08
2023-05-09T19:12:19.742Z,15.11
2023-05-09T19:13:54.014Z,15.12
2023-05-09T19:15:27.268Z,15.06
2023-05-09T19:17:01.017Z,15.08
2023-05-09T19:18:34.376Z,15.03
2023-05-09T19:20:09.108Z,15.03
2023-05-09T19:21:42.505Z,14.99
2023-05-09T19:23:15.182Z,15.00
2023-05-09T19:24:48.828Z,14.97
2023-05-09T19:26:22.618Z,14.95
2023-05-09T19:27:54.677Z,14.94
2023-05-09T19:29:27.016Z,14.92
2023-05-09T19:31:00.027Z,14.92
2023-05-09T19:32:32.948Z,14.96
2023-05-09T19:34:06.607Z,15.02
2023-05-09T19:35:39.414Z,15.04
2023-05-09T19:37:12.532Z,14.99
2023-05-09T19:38:46.247Z,15.02
2023-05-09T19:40:20.110Z,15.02
2023-05-09T19:41:52.772Z,15.05
2023-05-09T19:43:24.683Z,15.00
2023-05-09T19:44:57.954Z,14.96
2023-05-09T19:46:30.710Z,14.83
2023-05-09T19:48:03.637Z,14.85
2023-05-09T19:49:35.787Z,14.78
2023-05-09T19:51:12.670Z,14.67
2023-05-09T19:52:46.010Z,14.63
2023-05-09T19:54:18.670Z,14.72
2023-05-09T19:55:51.004Z,14.68
2023-05-09T19:57:23.761Z,14.63
2023-05-09T19:58:57.006Z,14.68
2023-05-09T20:00:30.464Z,14.68
2023-05-09T20:02:03.697Z,14.75